sensor_id;sensor_type;location;lat;lon;timestamp;pressure;altitude;pressure_sealevel;temperature
19948;BMP180;10135;50.702;7.276;2022-09-09T05:30:17;98823.00;;;21.00
19948;BMP180;10135;50.702;7.276;2022-09-09T05:32:19;98819.00;;;21.00
19948;BMP180;10135;50.702;7.276;2022-09-09T05:34:19;98823.00;;;21.00
19948;BMP180;10135;50.702;7.276;2022-09-09T05:36:22;98821.00;;;21.00
19948;BMP180;10135;50.702;7.276;2022-09-09T05:38:23;98815.00;;;21.10
19948;BMP180;10135;50.702;7.276;2022-09-09T05:40:26;98815.00;;;21.10
19948;BMP180;10135;50.702;7.276;2022-09-09T05:42:30;98820.00;;;21.10
19948;BMP180;10135;50.702;7.276;2022-09-09T05:44:32;98819.00;;;21.10
19948;BMP180;10135;50.702;7.276;2022-09-09T05:46:33;98823.00;;;21.10
19948;BMP180;10135;50.702;7.276;2022-09-09T05:48:37;98824.00;;;21.10
19948;BMP180;10135;50.702;7.276;2022-09-09T05:50:38;98818.00;;;21.10
19948;BMP180;10135;50.702;7.276;2022-09-09T05:52:38;98818.00;;;21.10
19948;BMP180;10135;50.702;7.276;2022-09-09T05:54:39;98822.00;;;21.10
19948;BMP180;10135;50.702;7.276;2022-09-09T05:56:40;98825.00;;;21.10
19948;BMP180;10135;50.702;7.276;2022-09-09T05:58:41;98822.00;;;21.10
19948;BMP180;10135;50.702;7.276;2022-09-09T06:00:44;98823.00;;;21.20
19948;BMP180;10135;50.702;7.276;2022-09-09T06:02:51;98825.00;;;21.10
19948;BMP180;10135;50.702;7.276;2022-09-09T06:04:52;98826.00;;;21.20
19948;BMP180;10135;50.702;7.276;2022-09-09T06:06:53;98822.00;;;21.20
19948;BMP180;10135;50.702;7.276;2022-09-09T06:08:56;98820.00;;;21.20
19948;BMP180;10135;50.702;7.276;2022-09-09T06:11:10;98819.00;;;21.20
19948;BMP180;10135;50.702;7.276;2022-09-09T06:13:11;98827.00;;;21.20
19948;BMP180;10135;50.702;7.276;2022-09-09T06:15:12;98818.00;;;21.20
19948;BMP180;10135;50.702;7.276;2022-09-09T06:17:12;98820.00;;;21.20
19948;BMP180;10135;50.702;7.276;2022-09-09T06:19:13;98819.00;;;21.30
19948;BMP180;10135;50.702;7.276;2022-09-09T06:21:16;98815.00;;;21.30
19948;BMP180;10135;50.702;7.276;2022-09-09T06:23:17;98819.00;;;21.30
19948;BMP180;10135;50.702;7.276;2022-09-09T06:25:17;98813.00;;;21.30
19948;BMP180;10135;50.702;7.276;2022-09-09T06:27:19;98818.00;;;21.30
19948;BMP180;10135;50.702;7.276;2022-09-09T06:29:19;98817.00;;;21.40
19948;BMP180;10135;50.702;7.276;2022-09-09T06:31:26;98820.00;;;21.40
19948;BMP180;10135;50.702;7.276;2022-09-09T06:33:32;98821.00;;;21.40
19948;BMP180;10135;50.702;7.276;2022-09-09T06:35:38;98821.00;;;21.40
19948;BMP180;10135;50.702;7.276;2022-09-09T06:37:38;98822.00;;;21.40
19948;BMP180;10135;50.702;7.276;2022-09-09T06:39:39;98826.00;;;21.50
19948;BMP180;10135;50.702;7.276;2022-09-09T06:41:41;98828.00;;;21.50
19948;BMP180;10135;50.702;7.276;2022-09-09T06:43:43;98829.00;;;21.50
19948;BMP180;10135;50.702;7.276;2022-09-09T06:45:43;98824.00;;;21.50
19948;BMP180;10135;50.702;7.276;2022-09-09T06:47:45;98826.00;;;21.50
19948;BMP180;10135;50.702;7.276;2022-09-09T06:49:46;98834.00;;;21.50
19948;BMP180;10135;50.702;7.276;2022-09-09T06:51:46;98825.00;;;21.60
19948;BMP180;10135;50.702;7.276;2022-09-09T06:53:51;98826.00;;;21.60
19948;BMP180;10135;50.702;7.276;2022-09-09T06:55:53;98827.00;;;21.60
19948;BMP180;10135;50.702;7.276;2022-09-09T06:57:55;98827.00;;;21.60
19948;BMP180;10135;50.702;7.276;2022-09-09T06:59:55;98823.00;;;21.60
19948;BMP180;10135;50.702;7.276;2022-09-09T07:01:56;98818.00;;;21.60
19948;BMP180;10135;50.702;7.276;2022-09-09T07:03:59;98817.00;;;21.60
19948;BMP180;10135;50.702;7.276;2022-09-09T07:06:00;98819.00;;;21.60
19948;BMP180;10135;50.702;7.276;2022-09-09T07:08:01;98824.00;;;21.60
19948;BMP180;10135;50.702;7.276;2022-09-09T07:10:03;98820.00;;;21.60
19948;BMP180;10135;50.702;7.276;2022-09-09T07:12:04;98816.00;;;21.70
19948;BMP180;10135;50.702;7.276;2022-09-09T07:14:07;98817.00;;;21.70
19948;BMP180;10135;50.702;7.276;2022-09-09T07:16:12;98819.00;;;21.70
19948;BMP180;10135;50.702;7.276;2022-09-09T07:18:13;98811.00;;;21.70
19948;BMP180;10135;50.702;7.276;2022-09-09T07:20:13;98809.00;;;21.70
19948;BMP180;10135;50.702;7.276;2022-09-09T07:22:15;98816.00;;;21.80
19948;BMP180;10135;50.702;7.276;2022-09-09T07:24:16;98813.00;;;21.80
19948;BMP180;10135;50.702;7.276;2022-09-09T07:26:20;98817.00;;;21.80
19948;BMP180;10135;50.702;7.276;2022-09-09T07:28:22;98813.00;;;21.80
19948;BMP180;10135;50.702;7.276;2022-09-09T07:30:23;98815.00;;;21.90
19948;BMP180;10135;50.702;7.276;2022-09-09T07:32:23;98821.00;;;21.90
19948;BMP180;10135;50.702;7.276;2022-09-09T07:34:25;98822.00;;;22.00
19948;BMP180;10135;50.702;7.276;2022-09-09T07:36:34;98829.00;;;22.00
19948;BMP180;10135;50.702;7.276;2022-09-09T07:38:46;98827.00;;;22.00
19948;BMP180;10135;50.702;7.276;2022-09-09T07:40:47;98826.00;;;22.10
19948;BMP180;10135;50.702;7.276;2022-09-09T07:42:48;98826.00;;;22.10
19948;BMP180;10135;50.702;7.276;2022-09-09T07:44:48;98826.00;;;22.20
19948;BMP180;10135;50.702;7.276;2022-09-09T07:46:49;98837.00;;;22.20
19948;BMP180;10135;50.702;7.276;2022-09-09T07:48:55;98837.00;;;22.20
19948;BMP180;10135;50.702;7.276;2022-09-09T07:51:07;98827.00;;;22.20
19948;BMP180;10135;50.702;7.276;2022-09-09T07:53:08;98850.00;;;22.30
19948;BMP180;10135;50.702;7.276;2022-09-09T07:55:09;98844.00;;;22.30
19948;BMP180;10135;50.702;7.276;2022-09-09T07:57:11;98844.00;;;22.30
19948;BMP180;10135;50.702;7.276;2022-09-09T07:59:13;98849.00;;;22.30
19948;BMP180;10135;50.702;7.276;2022-09-09T08:01:18;98851.00;;;22.30
19948;BMP180;10135;50.702;7.276;2022-09-09T08:03:19;98849.00;;;22.40
19948;BMP180;10135;50.702;7.276;2022-09-09T08:05:22;98850.00;;;22.40
19948;BMP180;10135;50.702;7.276;2022-09-09T08:07:23;98852.00;;;22.40
19948;BMP180;10135;50.702;7.276;2022-09-09T08:09:25;98857.00;;;22.40
19948;BMP180;10135;50.702;7.276;2022-09-09T08:11:29;98857.00;;;22.40
19948;BMP180;10135;50.702;7.276;2022-09-09T08:13:29;98859.00;;;22.40
19948;BMP180;10135;50.702;7.276;2022-09-09T08:15:31;98866.00;;;22.40
19948;BMP180;10135;50.702;7.276;2022-09-09T08:17:32;98868.00;;;22.50
19948;BMP180;10135;50.702;7.276;2022-09-09T08:19:33;98861.00;;;22.50
19948;BMP180;10135;50.702;7.276;2022-09-09T08:21:39;98857.00;;;22.50
19948;BMP180;10135;50.702;7.276;2022-09-09T08:23:42;98861.00;;;22.50
19948;BMP180;10135;50.702;7.276;2022-09-09T08:25:43;98865.00;;;22.50
19948;BMP180;10135;50.702;7.276;2022-09-09T08:27:45;98857.00;;;22.40
19948;BMP180;10135;50.702;7.276;2022-09-09T08:29:46;98872.00;;;22.40
19948;BMP180;10135;50.702;7.276;2022-09-09T08:31:50;98870.00;;;22.40
19948;BMP180;10135;50.702;7.276;2022-09-09T08:33:51;98862.00;;;22.40
19948;BMP180;10135;50.702;7.276;2022-09-09T08:35:52;98871.00;;;22.40
19948;BMP180;10135;50.702;7.276;2022-09-09T08:37:55;98859.00;;;22.40
19948;BMP180;10135;50.702;7.276;2022-09-09T08:39:56;98866.00;;;22.40
19948;BMP180;10135;50.702;7.276;2022-09-09T08:46:48;98856.00;;;22.50
19948;BMP180;10135;50.702;7.276;2022-09-09T08:51:15;98864.00;;;22.70
19948;BMP180;10135;50.702;7.276;2022-09-09T08:53:24;98865.00;;;22.70
19948;BMP180;10135;50.702;7.276;2022-09-09T08:55:56;98864.00;;;22.70
19948;BMP180;10135;50.702;7.276;2022-09-09T08:58:14;98859.00;;;22.80
19948;BMP180;10135;50.702;7.276;2022-09-09T09:00:15;98865.00;;;22.80
19948;BMP180;10135;50.702;7.276;2022-09-09T09:02:25;98874.00;;;22.90
19948;BMP180;10135;50.702;7.276;2022-09-09T09:07:28;98876.00;;;22.90
19948;BMP180;10135;50.702;7.276;2022-09-09T09:12:01;98880.00;;;23.00
19948;BMP180;10135;50.702;7.276;2022-09-09T09:14:23;98871.00;;;23.00
19948;BMP180;10135;50.702;7.276;2022-09-09T09:16:48;98880.00;;;23.00
19948;BMP180;10135;50.702;7.276;2022-09-09T09:18:51;98877.00;;;23.10
19948;BMP180;10135;50.702;7.276;2022-09-09T09:21:01;98882.00;;;23.10
19948;BMP180;10135;50.702;7.276;2022-09-09T09:23:06;98876.00;;;23.20
19948;BMP180;10135;50.702;7.276;2022-09-09T09:27:52;98873.00;;;23.30
19948;BMP180;10135;50.702;7.276;2022-09-09T09:30:21;98875.00;;;23.30
19948;BMP180;10135;50.702;7.276;2022-09-09T09:32:22;98874.00;;;23.40
19948;BMP180;10135;50.702;7.276;2022-09-09T09:34:24;98881.00;;;23.40
19948;BMP180;10135;50.702;7.276;2022-09-09T09:36:41;98885.00;;;23.40
19948;BMP180;10135;50.702;7.276;2022-09-09T09:38:58;98894.00;;;23.40
19948;BMP180;10135;50.702;7.276;2022-09-09T09:41:01;98884.00;;;23.50
19948;BMP180;10135;50.702;7.276;2022-09-09T09:43:03;98888.00;;;23.50
19948;BMP180;10135;50.702;7.276;2022-09-09T09:45:40;98893.00;;;23.50
19948;BMP180;10135;50.702;7.276;2022-09-09T09:47:42;98888.00;;;23.50
19948;BMP180;10135;50.702;7.276;2022-09-09T09:49:58;98891.00;;;23.50
19948;BMP180;10135;50.702;7.276;2022-09-09T09:52:04;98889.00;;;23.50
19948;BMP180;10135;50.702;7.276;2022-09-09T09:54:19;98893.00;;;23.50
19948;BMP180;10135;50.702;7.276;2022-09-09T09:56:28;98898.00;;;23.50
19948;BMP180;10135;50.702;7.276;2022-09-09T09:58:48;98888.00;;;23.40
19948;BMP180;10135;50.702;7.276;2022-09-09T10:00:52;98889.00;;;23.40
19948;BMP180;10135;50.702;7.276;2022-09-09T10:02:53;98883.00;;;23.40
19948;BMP180;10135;50.702;7.276;2022-09-09T10:05:12;98885.00;;;23.40
19948;BMP180;10135;50.702;7.276;2022-09-09T10:07:18;98885.00;;;23.40
19948;BMP180;10135;50.702;7.276;2022-09-09T10:09:29;98880.00;;;23.30
19948;BMP180;10135;50.702;7.276;2022-09-09T10:19:37;98882.00;;;23.30
19948;BMP180;10135;50.702;7.276;2022-09-09T10:22:27;98882.00;;;23.30
19948;BMP180;10135;50.702;7.276;2022-09-09T10:26:49;98889.00;;;23.40
19948;BMP180;10135;50.702;7.276;2022-09-09T10:29:18;98879.00;;;23.40
19948;BMP180;10135;50.702;7.276;2022-09-09T10:36:21;98872.00;;;23.50
19948;BMP180;10135;50.702;7.276;2022-09-09T10:38:39;98883.00;;;23.50
19948;BMP180;10135;50.702;7.276;2022-09-09T10:43:31;98874.00;;;23.50
19948;BMP180;10135;50.702;7.276;2022-09-09T10:55:10;98867.00;;;23.60
19948;BMP180;10135;50.702;7.276;2022-09-09T10:59:30;98857.00;;;23.70
19948;BMP180;10135;50.702;7.276;2022-09-09T11:01:51;98860.00;;;23.80
19948;BMP180;10135;50.702;7.276;2022-09-09T11:04:09;98853.00;;;23.90
19948;BMP180;10135;50.702;7.276;2022-09-09T11:06:19;98856.00;;;24.00
19948;BMP180;10135;50.702;7.276;2022-09-09T11:08:26;98858.00;;;24.00
19948;BMP180;10135;50.702;7.276;2022-09-09T11:10:39;98852.00;;;24.10
19948;BMP180;10135;50.702;7.276;2022-09-09T11:12:45;98858.00;;;24.10
19948;BMP180;10135;50.702;7.276;2022-09-09T11:15:05;98851.00;;;24.20
19948;BMP180;10135;50.702;7.276;2022-09-09T11:17:15;98857.00;;;24.30
19948;BMP180;10135;50.702;7.276;2022-09-09T11:19:38;98859.00;;;24.30
19948;BMP180;10135;50.702;7.276;2022-09-09T11:21:48;98851.00;;;24.40
19948;BMP180;10135;50.702;7.276;2022-09-09T11:23:57;98852.00;;;24.40
19948;BMP180;10135;50.702;7.276;2022-09-09T11:26:03;98853.00;;;24.50
19948;BMP180;10135;50.702;7.276;2022-09-09T11:28:19;98848.00;;;24.50
19948;BMP180;10135;50.702;7.276;2022-09-09T11:30:49;98842.00;;;24.50
19948;BMP180;10135;50.702;7.276;2022-09-09T11:38:29;98847.00;;;24.70
19948;BMP180;10135;50.702;7.276;2022-09-09T11:40:33;98844.00;;;24.70
19948;BMP180;10135;50.702;7.276;2022-09-09T11:42:34;98851.00;;;24.70
19948;BMP180;10135;50.702;7.276;2022-09-09T11:44:34;98846.00;;;24.60
19948;BMP180;10135;50.702;7.276;2022-09-09T11:46:38;98855.00;;;24.60
19948;BMP180;10135;50.702;7.276;2022-09-09T11:48:42;98851.00;;;24.60
19948;BMP180;10135;50.702;7.276;2022-09-09T11:50:45;98855.00;;;24.60
19948;BMP180;10135;50.702;7.276;2022-09-09T11:52:48;98851.00;;;24.60
19948;BMP180;10135;50.702;7.276;2022-09-09T11:54:50;98843.00;;;24.60
19948;BMP180;10135;50.702;7.276;2022-09-09T11:56:50;98837.00;;;24.60
19948;BMP180;10135;50.702;7.276;2022-09-09T12:00:57;98845.00;;;24.80
19948;BMP180;10135;50.702;7.276;2022-09-09T12:02:58;98831.00;;;24.80
19948;BMP180;10135;50.702;7.276;2022-09-09T12:05:06;98837.00;;;24.90
19948;BMP180;10135;50.702;7.276;2022-09-09T12:07:30;98834.00;;;24.90
19948;BMP180;10135;50.702;7.276;2022-09-09T12:10:38;98837.00;;;25.00
19948;BMP180;10135;50.702;7.276;2022-09-09T12:12:38;98828.00;;;25.10
19948;BMP180;10135;50.702;7.276;2022-09-09T12:17:29;98838.00;;;25.20
19948;BMP180;10135;50.702;7.276;2022-09-09T12:19:30;98834.00;;;25.20
19948;BMP180;10135;50.702;7.276;2022-09-09T12:23:16;98829.00;;;25.30
19948;BMP180;10135;50.702;7.276;2022-09-09T12:24:54;98834.00;;;25.30
19948;BMP180;10135;50.702;7.276;2022-09-09T12:27:11;98829.00;;;25.20
19948;BMP180;10135;50.702;7.276;2022-09-09T12:32:26;98836.00;;;25.10
19948;BMP180;10135;50.702;7.276;2022-09-09T12:34:10;98839.00;;;25.10
19948;BMP180;10135;50.702;7.276;2022-09-09T12:36:22;98835.00;;;25.10
19948;BMP180;10135;50.702;7.276;2022-09-09T12:38:34;98838.00;;;25.00
19948;BMP180;10135;50.702;7.276;2022-09-09T12:40:36;98838.00;;;25.10
19948;BMP180;10135;50.702;7.276;2022-09-09T12:42:40;98839.00;;;25.00
19948;BMP180;10135;50.702;7.276;2022-09-09T12:44:52;98836.00;;;25.00
19948;BMP180;10135;50.702;7.276;2022-09-09T12:46:53;98836.00;;;25.00
19948;BMP180;10135;50.702;7.276;2022-09-09T12:48:56;98845.00;;;25.00
19948;BMP180;10135;50.702;7.276;2022-09-09T12:50:57;98834.00;;;25.00
19948;BMP180;10135;50.702;7.276;2022-09-09T12:53:04;98835.00;;;25.00
19948;BMP180;10135;50.702;7.276;2022-09-09T12:55:19;98828.00;;;24.90
19948;BMP180;10135;50.702;7.276;2022-09-09T12:57:25;98829.00;;;24.90
19948;BMP180;10135;50.702;7.276;2022-09-09T12:59:39;98817.00;;;24.90
19948;BMP180;10135;50.702;7.276;2022-09-09T13:01:40;98829.00;;;24.90
19948;BMP180;10135;50.702;7.276;2022-09-09T13:03:44;98825.00;;;24.80
19948;BMP180;10135;50.702;7.276;2022-09-09T13:05:46;98823.00;;;24.80
19948;BMP180;10135;50.702;7.276;2022-09-09T13:07:47;98819.00;;;24.80
19948;BMP180;10135;50.702;7.276;2022-09-09T13:09:49;98820.00;;;24.70
19948;BMP180;10135;50.702;7.276;2022-09-09T13:11:54;98816.00;;;24.70
19948;BMP180;10135;50.702;7.276;2022-09-09T13:13:58;98816.00;;;24.70
19948;BMP180;10135;50.702;7.276;2022-09-09T13:16:01;98818.00;;;24.70
19948;BMP180;10135;50.702;7.276;2022-09-09T13:18:11;98810.00;;;24.60
19948;BMP180;10135;50.702;7.276;2022-09-09T13:20:18;98808.00;;;24.60
19948;BMP180;10135;50.702;7.276;2022-09-09T13:22:30;98813.00;;;24.60
19948;BMP180;10135;50.702;7.276;2022-09-09T13:24:34;98812.00;;;24.60
19948;BMP180;10135;50.702;7.276;2022-09-09T13:26:35;98804.00;;;24.60
19948;BMP180;10135;50.702;7.276;2022-09-09T13:28:36;98804.00;;;24.60
19948;BMP180;10135;50.702;7.276;2022-09-09T13:30:37;98804.00;;;24.60
19948;BMP180;10135;50.702;7.276;2022-09-09T13:32:41;98808.00;;;24.60
19948;BMP180;10135;50.702;7.276;2022-09-09T13:34:59;98821.00;;;24.50
19948;BMP180;10135;50.702;7.276;2022-09-09T13:37:03;98821.00;;;24.50
19948;BMP180;10135;50.702;7.276;2022-09-09T13:39:16;98826.00;;;24.50
19948;BMP180;10135;50.702;7.276;2022-09-09T13:41:42;98821.00;;;24.40
19948;BMP180;10135;50.702;7.276;2022-09-09T13:43:46;98815.00;;;24.50
19948;BMP180;10135;50.702;7.276;2022-09-09T13:46:00;98815.00;;;24.30
19948;BMP180;10135;50.702;7.276;2022-09-09T13:48:09;98812.00;;;24.30
19948;BMP180;10135;50.702;7.276;2022-09-09T13:50:25;98808.00;;;24.30
19948;BMP180;10135;50.702;7.276;2022-09-09T13:52:31;98818.00;;;24.30
19948;BMP180;10135;50.702;7.276;2022-09-09T13:54:32;98819.00;;;24.30
19948;BMP180;10135;50.702;7.276;2022-09-09T13:56:38;98809.00;;;24.30
19948;BMP180;10135;50.702;7.276;2022-09-09T13:58:39;98813.00;;;24.40
19948;BMP180;10135;50.702;7.276;2022-09-09T14:00:39;98810.00;;;24.30
19948;BMP180;10135;50.702;7.276;2022-09-09T14:02:40;98806.00;;;24.30
19948;BMP180;10135;50.702;7.276;2022-09-09T14:04:40;98808.00;;;24.30
19948;BMP180;10135;50.702;7.276;2022-09-09T14:06:42;98809.00;;;24.20
19948;BMP180;10135;50.702;7.276;2022-09-09T14:08:44;98811.00;;;24.20
19948;BMP180;10135;50.702;7.276;2022-09-09T14:10:45;98815.00;;;24.20
19948;BMP180;10135;50.702;7.276;2022-09-09T14:12:45;98812.00;;;24.20
19948;BMP180;10135;50.702;7.276;2022-09-09T14:14:47;98812.00;;;24.10
19948;BMP180;10135;50.702;7.276;2022-09-09T14:16:47;98803.00;;;24.10
19948;BMP180;10135;50.702;7.276;2022-09-09T14:18:48;98811.00;;;24.00
19948;BMP180;10135;50.702;7.276;2022-09-09T14:20:49;98803.00;;;24.00
19948;BMP180;10135;50.702;7.276;2022-09-09T14:22:50;98815.00;;;24.00
19948;BMP180;10135;50.702;7.276;2022-09-09T14:24:51;98806.00;;;23.90
19948;BMP180;10135;50.702;7.276;2022-09-09T14:26:52;98808.00;;;23.90
19948;BMP180;10135;50.702;7.276;2022-09-09T14:28:53;98798.00;;;23.90
19948;BMP180;10135;50.702;7.276;2022-09-09T14:30:53;98806.00;;;23.90
19948;BMP180;10135;50.702;7.276;2022-09-09T14:32:54;98808.00;;;23.90
19948;BMP180;10135;50.702;7.276;2022-09-09T14:34:54;98808.00;;;23.90
19948;BMP180;10135;50.702;7.276;2022-09-09T14:36:55;98801.00;;;23.90
19948;BMP180;10135;50.702;7.276;2022-09-09T14:38:56;98805.00;;;23.90
19948;BMP180;10135;50.702;7.276;2022-09-09T14:40:57;98799.00;;;23.90
19948;BMP180;10135;50.702;7.276;2022-09-09T14:42:58;98799.00;;;23.90
19948;BMP180;10135;50.702;7.276;2022-09-09T14:44:59;98802.00;;;23.90
19948;BMP180;10135;50.702;7.276;2022-09-09T14:47:00;98807.00;;;23.80
19948;BMP180;10135;50.702;7.276;2022-09-09T14:49:00;98804.00;;;23.80
19948;BMP180;10135;50.702;7.276;2022-09-09T14:51:25;98811.00;;;23.80
19948;BMP180;10135;50.702;7.276;2022-09-09T14:53:27;98813.00;;;23.80
19948;BMP180;10135;50.702;7.276;2022-09-09T14:55:28;98814.00;;;23.80
19948;BMP180;10135;50.702;7.276;2022-09-09T14:57:29;98811.00;;;23.80
19948;BMP180;10135;50.702;7.276;2022-09-09T14:59:30;98809.00;;;23.70
19948;BMP180;10135;50.702;7.276;2022-09-09T15:01:31;98818.00;;;23.70
19948;BMP180;10135;50.702;7.276;2022-09-09T15:03:32;98815.00;;;23.70
19948;BMP180;10135;50.702;7.276;2022-09-09T15:05:35;98817.00;;;23.70
19948;BMP180;10135;50.702;7.276;2022-09-09T15:07:36;98812.00;;;23.60
19948;BMP180;10135;50.702;7.276;2022-09-09T15:09:38;98826.00;;;23.60
19948;BMP180;10135;50.702;7.276;2022-09-09T15:11:39;98809.00;;;23.60
19948;BMP180;10135;50.702;7.276;2022-09-09T15:13:42;98815.00;;;23.50
19948;BMP180;10135;50.702;7.276;2022-09-09T15:15:43;98821.00;;;23.50
19948;BMP180;10135;50.702;7.276;2022-09-09T15:17:44;98820.00;;;23.50
19948;BMP180;10135;50.702;7.276;2022-09-09T15:19:44;98824.00;;;23.40
19948;BMP180;10135;50.702;7.276;2022-09-09T15:21:46;98823.00;;;23.40
19948;BMP180;10135;50.702;7.276;2022-09-09T15:23:48;98827.00;;;23.40
19948;BMP180;10135;50.702;7.276;2022-09-09T15:25:54;98832.00;;;23.30
19948;BMP180;10135;50.702;7.276;2022-09-09T15:27:55;98832.00;;;23.30
19948;BMP180;10135;50.702;7.276;2022-09-09T15:29:56;98826.00;;;23.30
19948;BMP180;10135;50.702;7.276;2022-09-09T15:31:58;98825.00;;;23.20
19948;BMP180;10135;50.702;7.276;2022-09-09T15:34:03;98826.00;;;23.20
19948;BMP180;10135;50.702;7.276;2022-09-09T15:36:23;98828.00;;;23.10
19948;BMP180;10135;50.702;7.276;2022-09-09T15:38:24;98822.00;;;23.10
19948;BMP180;10135;50.702;7.276;2022-09-09T15:40:25;98826.00;;;23.10
19948;BMP180;10135;50.702;7.276;2022-09-09T15:42:25;98823.00;;;23.10
19948;BMP180;10135;50.702;7.276;2022-09-09T15:44:26;98826.00;;;23.00
19948;BMP180;10135;50.702;7.276;2022-09-09T15:48:41;98823.00;;;23.00
19948;BMP180;10135;50.702;7.276;2022-09-09T15:50:42;98819.00;;;22.90
19948;BMP180;10135;50.702;7.276;2022-09-09T15:52:42;98826.00;;;22.90
19948;BMP180;10135;50.702;7.276;2022-09-09T15:54:43;98834.00;;;22.90
19948;BMP180;10135;50.702;7.276;2022-09-09T15:56:46;98833.00;;;22.90
19948;BMP180;10135;50.702;7.276;2022-09-09T15:58:49;98834.00;;;22.90
19948;BMP180;10135;50.702;7.276;2022-09-09T16:00:50;98840.00;;;22.90
19948;BMP180;10135;50.702;7.276;2022-09-09T16:02:51;98844.00;;;22.80
19948;BMP180;10135;50.702;7.276;2022-09-09T16:04:53;98839.00;;;22.80
19948;BMP180;10135;50.702;7.276;2022-09-09T16:06:57;98843.00;;;22.80
19948;BMP180;10135;50.702;7.276;2022-09-09T16:09:00;98839.00;;;22.70
19948;BMP180;10135;50.702;7.276;2022-09-09T16:11:15;98845.00;;;22.70
19948;BMP180;10135;50.702;7.276;2022-09-09T16:13:16;98851.00;;;22.70
19948;BMP180;10135;50.702;7.276;2022-09-09T16:15:16;98853.00;;;22.70
19948;BMP180;10135;50.702;7.276;2022-09-09T16:17:17;98858.00;;;22.70
19948;BMP180;10135;50.702;7.276;2022-09-09T16:19:19;98859.00;;;22.70
19948;BMP180;10135;50.702;7.276;2022-09-09T16:21:34;98858.00;;;22.60
19948;BMP180;10135;50.702;7.276;2022-09-09T16:23:35;98858.00;;;22.60
19948;BMP180;10135;50.702;7.276;2022-09-09T16:25:36;98854.00;;;22.70
19948;BMP180;10135;50.702;7.276;2022-09-09T16:27:36;98851.00;;;22.60
19948;BMP180;10135;50.702;7.276;2022-09-09T16:29:37;98854.00;;;22.60
19948;BMP180;10135;50.702;7.276;2022-09-09T16:31:38;98853.00;;;22.60
19948;BMP180;10135;50.702;7.276;2022-09-09T16:33:40;98853.00;;;22.60
19948;BMP180;10135;50.702;7.276;2022-09-09T16:35:42;98853.00;;;22.60
19948;BMP180;10135;50.702;7.276;2022-09-09T16:37:42;98858.00;;;22.60
19948;BMP180;10135;50.702;7.276;2022-09-09T16:39:43;98861.00;;;22.60
19948;BMP180;10135;50.702;7.276;2022-09-09T16:41:46;98861.00;;;22.60
19948;BMP180;10135;50.702;7.276;2022-09-09T16:43:57;98863.00;;;22.50
19948;BMP180;10135;50.702;7.276;2022-09-09T16:45:59;98860.00;;;22.60
19948;BMP180;10135;50.702;7.276;2022-09-09T16:48:03;98868.00;;;22.50
19948;BMP180;10135;50.702;7.276;2022-09-09T16:50:04;98863.00;;;22.50
19948;BMP180;10135;50.702;7.276;2022-09-09T16:52:05;98869.00;;;22.50
19948;BMP180;10135;50.702;7.276;2022-09-09T16:54:07;98872.00;;;22.50
19948;BMP180;10135;50.702;7.276;2022-09-09T16:56:15;98874.00;;;22.40
19948;BMP180;10135;50.702;7.276;2022-09-09T16:58:16;98874.00;;;22.40
19948;BMP180;10135;50.702;7.276;2022-09-09T17:00:17;98875.00;;;22.40
19948;BMP180;10135;50.702;7.276;2022-09-09T17:02:18;98876.00;;;22.30
19948;BMP180;10135;50.702;7.276;2022-09-09T17:04:22;98873.00;;;22.20
19948;BMP180;10135;50.702;7.276;2022-09-09T17:06:24;98867.00;;;22.20
19948;BMP180;10135;50.702;7.276;2022-09-09T17:08:25;98876.00;;;22.10
19948;BMP180;10135;50.702;7.276;2022-09-09T17:10:26;98871.00;;;22.10
19948;BMP180;10135;50.702;7.276;2022-09-09T17:12:27;98873.00;;;22.00
19948;BMP180;10135;50.702;7.276;2022-09-09T17:14:27;98881.00;;;22.00
19948;BMP180;10135;50.702;7.276;2022-09-09T17:16:31;98878.00;;;22.00
19948;BMP180;10135;50.702;7.276;2022-09-09T17:18:32;98887.00;;;22.00
19948;BMP180;10135;50.702;7.276;2022-09-09T17:20:39;98883.00;;;21.90
19948;BMP180;10135;50.702;7.276;2022-09-09T17:22:40;98882.00;;;21.90
19948;BMP180;10135;50.702;7.276;2022-09-09T17:24:41;98883.00;;;21.80
19948;BMP180;10135;50.702;7.276;2022-09-09T17:26:41;98889.00;;;21.80
19948;BMP180;10135;50.702;7.276;2022-09-09T17:28:43;98894.00;;;21.70
19948;BMP180;10135;50.702;7.276;2022-09-09T17:30:45;98893.00;;;21.70
19948;BMP180;10135;50.702;7.276;2022-09-09T17:32:47;98900.00;;;21.70
19948;BMP180;10135;50.702;7.276;2022-09-09T17:34:48;98895.00;;;21.70
19948;BMP180;10135;50.702;7.276;2022-09-09T17:36:49;98901.00;;;21.70
19948;BMP180;10135;50.702;7.276;2022-09-09T17:38:50;98907.00;;;21.70
19948;BMP180;10135;50.702;7.276;2022-09-09T17:41:06;98911.00;;;21.60
19948;BMP180;10135;50.702;7.276;2022-09-09T17:43:07;98906.00;;;21.60
19948;BMP180;10135;50.702;7.276;2022-09-09T17:45:09;98903.00;;;21.60
19948;BMP180;10135;50.702;7.276;2022-09-09T17:47:10;98902.00;;;21.60
19948;BMP180;10135;50.702;7.276;2022-09-09T17:49:16;98902.00;;;21.60
19948;BMP180;10135;50.702;7.276;2022-09-09T17:51:20;98904.00;;;21.60
19948;BMP180;10135;50.702;7.276;2022-09-09T17:53:23;98912.00;;;21.60
19948;BMP180;10135;50.702;7.276;2022-09-09T17:55:24;98908.00;;;21.50
19948;BMP180;10135;50.702;7.276;2022-09-09T17:57:25;98910.00;;;21.50
19948;BMP180;10135;50.702;7.276;2022-09-09T17:59:26;98909.00;;;21.50
19948;BMP180;10135;50.702;7.276;2022-09-09T18:01:30;98915.00;;;21.50
19948;BMP180;10135;50.702;7.276;2022-09-09T18:03:42;98915.00;;;21.50
19948;BMP180;10135;50.702;7.276;2022-09-09T18:05:43;98919.00;;;21.50
19948;BMP180;10135;50.702;7.276;2022-09-09T18:07:44;98920.00;;;21.50
19948;BMP180;10135;50.702;7.276;2022-09-09T18:09:45;98919.00;;;21.50
19948;BMP180;10135;50.702;7.276;2022-09-09T18:11:52;98918.00;;;21.50
19948;BMP180;10135;50.702;7.276;2022-09-09T18:13:56;98923.00;;;21.50
19948;BMP180;10135;50.702;7.276;2022-09-09T18:15:57;98911.00;;;21.50
19948;BMP180;10135;50.702;7.276;2022-09-09T18:17:58;98914.00;;;21.50
19948;BMP180;10135;50.702;7.276;2022-09-09T18:20:02;98922.00;;;21.50
19948;BMP180;10135;50.702;7.276;2022-09-09T18:22:04;98919.00;;;21.50
19948;BMP180;10135;50.702;7.276;2022-09-09T18:24:07;98923.00;;;21.50
19948;BMP180;10135;50.702;7.276;2022-09-09T18:26:10;98927.00;;;21.50
19948;BMP180;10135;50.702;7.276;2022-09-09T18:28:11;98925.00;;;21.50
19948;BMP180;10135;50.702;7.276;2022-09-09T18:30:12;98926.00;;;21.50